Time;durP1;ratioP1;P1;durP2;ratioP2;P2;SDS_P1;SDS_P2;PMS_P1;PMS_P2;Temp;Humidity;BMP_temperature;BMP_pressure;BME280_temperature;BME280_humidity;BME280_pressure;Samples;Min_cycle;Max_cycle;Signal;HPM_P1;HPM_P2
2022/07/31 01:04:46;;;;;;;29.15;9.32;;;;;;;14.97;70.63;99885.19;6158871;23;19900;-84
2022/07/31 01:28:13;;;;;;;29.17;9.23;;;;;;;15.04;71.35;99939.75;6184379;23;20012;-85
2022/07/31 01:31:26;;;;;;;29.30;9.82;;;;;;;15.07;70.90;99943.81;6137969;23;20065;-86
2022/07/31 01:34:02;;;;;;;26.35;8.80;;;;;;;15.01;70.92;99927.44;6133948;23;20009;-86
2022/07/31 01:36:33;;;;;;;31.88;9.35;;;;;;;14.86;70.90;99910.63;6159638;23;20021;-85
2022/07/31 01:39:04;;;;;;;29.15;9.23;;;;;;;14.84;71.04;99919.22;6159208;23;20025;-85
2022/07/31 01:43:06;;;;;;;30.58;9.88;;;;;;;14.90;71.60;99939.94;6168776;23;20044;-86
2022/07/31 01:47:06;;;;;;;24.63;8.88;;;;;;;15.00;71.49;99938.78;6158042;23;20002;-84
2022/07/31 01:55:33;;;;;;;24.48;10.40;;;;;;;15.03;71.22;99938.09;6152776;23;20054;-86
2022/07/31 01:59:28;;;;;;;26.98;10.80;;;;;;;15.03;70.92;99938.09;6094426;23;20031;-86
2022/07/31 02:03:42;;;;;;;21.00;10.00;;;;;;;14.96;71.15;99924.03;5924467;24;20009;-86
2022/07/31 02:08:04;;;;;;;27.38;12.55;;;;;;;14.88;71.14;99916.63;5871768;24;20040;-85
2022/07/31 02:11:52;;;;;;;46.67;18.02;;;;;;;15.04;71.33;99937.81;5782829;24;20019;-85
2022/07/31 02:15:29;;;;;;;35.88;15.80;;;;;;;15.00;71.44;99922.28;5819147;24;20018;-85
2022/07/31 02:19:05;;;;;;;37.70;14.85;;;;;;;15.10;71.21;99932.94;5819180;24;20008;-85
2022/07/31 02:23:29;;;;;;;26.48;13.20;;;;;;;15.12;71.33;99932.59;5740981;25;20103;-85
2022/07/31 02:27:03;;;;;;;33.20;13.75;;;;;;;15.19;71.80;99943.91;5738035;25;20033;-85
2022/07/31 02:31:07;;;;;;;31.45;12.93;;;;;;;15.26;71.44;99941.44;5765073;25;20015;-86
2022/07/31 02:46:07;;;;;;;29.00;12.65;;;;;;;15.46;72.07;99943.50;6153672;23;20061;-85
2022/07/31 02:48:35;;;;;;;34.17;13.25;;;;;;;15.40;72.06;99924.75;6105064;23;20005;-84
2022/07/31 02:51:05;;;;;;;32.92;13.55;;;;;;;15.55;71.88;99931.63;6129350;23;20033;-84
2022/07/31 02:54:20;;;;;;;34.55;13.27;;;;;;;15.66;71.58;99943.88;6065286;23;20023;-84
2022/07/31 03:06:59;;;;;;;40.50;13.48;;;;;;;15.95;70.61;99934.84;6157628;23;19997;-86
2022/07/31 03:09:27;;;;;;;32.33;11.82;;;;;;;15.96;70.39;99937.28;6158587;23;20009;-85
2022/07/31 03:19:52;;;;;;;42.08;11.38;;;;;;;16.34;67.92;99943.84;6184959;23;20033;-84
2022/07/31 03:22:18;;;;;;;31.08;11.48;;;;;;;16.16;67.77;99899.84;6183053;23;20002;-85
2022/07/31 03:25:50;;;;;;;40.33;11.15;;;;;;;16.59;67.63;99948.38;6155123;23;20043;-85
2022/07/31 03:28:50;;;;;;;43.70;11.57;;;;;;;16.71;68.17;99939.31;6134201;23;20005;-85
2022/07/31 03:31:57;;;;;;;90.00;13.40;;;;;;;16.83;68.48;99944.91;6183794;23;20030;-84
2022/07/31 03:35:17;;;;;;;61.65;12.43;;;;;;;16.87;68.09;99934.00;6065730;23;20064;-86
2022/07/31 03:39:26;;;;;;;44.35;11.95;;;;;;;17.08;68.51;99943.03;6047000;23;20003;-85
2022/07/31 03:42:43;;;;;;;38.58;11.90;;;;;;;17.27;66.83;99948.03;6042186;23;20007;-85
2022/07/31 03:45:51;;;;;;;39.08;11.82;;;;;;;17.40;68.45;99954.41;6020421;23;20007;-85
2022/07/31 03:50:03;;;;;;;39.15;11.95;;;;;;;17.47;67.28;99940.81;5927650;24;20009;-85
2022/07/31 03:52:59;;;;;;;45.45;12.20;;;;;;;17.65;65.39;99959.94;5921901;24;20012;-85
2022/07/31 03:57:07;;;;;;;32.50;10.10;;;;;;;17.80;63.32;99962.06;5917205;24;20067;-85
2022/07/31 04:00:59;;;;;;;35.97;10.10;;;;;;;17.84;62.81;99954.69;5913042;24;20033;-85
2022/07/31 04:04:17;;;;;;;25.88;10.15;;;;;;;17.96;63.16;99965.75;5927214;24;20008;-84
2022/07/31 04:08:10;;;;;;;39.35;10.50;;;;;;;18.08;60.68;99959.41;5901226;24;20081;-86
2022/07/31 04:14:57;;;;;;;36.08;11.50;;;;;;;18.31;58.39;99970.78;6037949;23;20060;-86
2022/07/31 04:17:50;;;;;;;34.75;12.40;;;;;;;18.38;56.53;99964.66;5968445;23;20043;-87
2022/07/31 04:21:33;;;;;;;49.00;13.07;;;;;;;18.50;57.77;99961.84;6023273;23;20015;-86
2022/07/31 04:25:30;;;;;;;35.05;12.05;;;;;;;18.61;55.34;99963.00;5959210;23;20001;-84
2022/07/31 04:30:02;;;;;;;56.50;13.82;;;;;;;18.75;57.03;99968.97;6115997;23;20037;-87
2022/07/31 04:34:26;;;;;;;41.92;12.50;;;;;;;18.85;56.94;99955.78;6067001;23;20012;-87
2022/07/31 04:53:33;;;;;;;34.53;10.68;;;;;;;19.38;57.76;99943.34;6142175;23;20044;-86
2022/07/31 04:56:43;;;;;;;42.08;10.73;;;;;;;19.56;58.46;99952.09;6133756;23;20037;-85
2022/07/31 05:00:26;;;;;;;57.22;12.70;;;;;;;19.66;58.18;99956.34;6041622;23;20030;-85
2022/07/31 05:03:51;;;;;;;32.55;10.57;;;;;;;19.64;57.90;99930.94;6009354;23;20041;-86
2022/07/31 05:07:03;;;;;;;31.60;10.15;;;;;;;19.83;58.50;99949.63;5963212;23;20008;-85
2022/07/31 05:14:23;;;;;;;37.53;10.80;;;;;;;19.86;57.75;99923.94;5947008;24;20053;-86
2022/07/31 05:18:01;;;;;;;23.63;9.77;;;;;;;20.09;56.98;99952.63;5931049;24;20040;-85
2022/07/31 05:21:19;;;;;;;29.77;13.05;;;;;;;20.16;56.35;99946.41;5930382;24;20036;-86
2022/07/31 05:24:49;;;;;;;25.23;8.75;;;;;;;20.17;54.86;99939.72;5959001;24;20081;-91
2022/07/31 05:27:15;;;;;;;34.08;10.45;;;;;;;20.25;55.83;99938.69;5905720;24;20040;-91
2022/07/31 05:29:44;;;;;;;32.05;11.32;;;;;;;20.26;54.73;99920.06;5928088;24;20057;-89
2022/07/31 05:32:11;;;;;;;30.48;11.50;;;;;;;20.31;55.19;99923.38;5928020;24;20427;-88
2022/07/31 05:34:38;;;;;;;29.17;9.57;;;;;;;20.44;55.72;99929.59;5973729;24;20020;-90
2022/07/31 05:37:05;;;;;;;32.67;10.65;;;;;;;20.42;56.25;99921.63;5980049;23;20056;-91
2022/07/31 06:23:42;;;;;;;11.18;4.78;;;;;;;21.73;44.29;99916.16;6128652;23;20028;-89
2022/07/31 06:26:26;;;;;;;30.52;7.30;;;;;;;21.79;47.40;99909.09;6083709;23;20017;-90
2022/07/31 06:28:53;;;;;;;33.38;6.97;;;;;;;21.85;46.98;99911.53;6127114;23;20001;-88
2022/07/31 06:32:53;;;;;;;30.00;8.85;;;;;;;21.98;47.79;99919.28;6140283;23;20029;-88
2022/07/31 06:40:37;;;;;;;37.55;6.72;;;;;;;22.29;46.01;99914.59;6121754;23;20149;-88
2022/07/31 09:13:14;;;;;;;11.10;3.38;;;;;;;23.37;36.44;99869.97;6007756;23;20027;-90
2022/07/31 09:16:42;;;;;;;9.48;3.70;;;;;;;23.36;35.43;99862.00;5983758;23;20083;-87
2022/07/31 12:31:53;;;;;;;59.95;8.43;;;;;;;24.08;33.89;99777.53;6168900;23;20052;-94
2022/07/31 12:42:23;;;;;;;78.30;8.77;;;;;;;24.52;33.88;99795.25;6090305;23;20032;-85
2022/07/31 12:44:52;;;;;;;83.13;11.20;;;;;;;24.66;34.17;99800.06;6079314;23;20022;-92
2022/07/31 14:10:44;;;;;;;38.17;5.63;;;;;;;25.44;32.01;99732.16;6171580;23;20030;-87
2022/07/31 14:13:11;;;;;;;35.10;5.07;;;;;;;25.28;33.97;99721.38;6129535;23;20025;-89
2022/07/31 14:15:37;;;;;;;38.78;4.90;;;;;;;25.27;36.89;99736.59;6080896;23;20508;-88
2022/07/31 14:18:04;;;;;;;45.78;5.88;;;;;;;25.39;36.45;99724.94;6080206;23;20021;-90
2022/07/31 15:37:15;;;;;;;136.50;10.35;;;;;;;25.83;32.36;99709.66;6187379;23;20044;-94
2022/07/31 18:15:02;;;;;;;42.78;11.45;;;;;;;21.20;51.28;99807.59;6169615;23;20025;-96
2022/07/31 18:22:56;;;;;;;37.63;10.00;;;;;;;20.82;50.91;99808.50;6072023;23;20023;-91
2022/07/31 19:28:12;;;;;;;55.83;10.80;;;;;;;19.28;54.44;99790.63;6155393;23;20112;-87
2022/07/31 19:58:55;;;;;;;23.08;6.88;;;;;;;19.14;53.32;99824.31;6192414;23;20013;-87
